createdAt,value
2022-11-06T00:01:46.219Z,1.60
2022-11-06T00:04:12.884Z,1.70
2022-11-06T00:06:48.512Z,1.40
2022-11-06T00:09:20.714Z,1.50
2022-11-06T00:11:52.381Z,1.50
2022-11-06T00:14:19.261Z,1.60
2022-11-06T00:16:47.083Z,1.40
2022-11-06T00:19:15.031Z,1.50
2022-11-06T00:21:42.207Z,1.60
2022-11-06T00:24:13.166Z,1.70
2022-11-06T00:26:40.154Z,1.50
2022-11-06T00:29:07.387Z,1.40
2022-11-06T00:31:37.010Z,1.10
2022-11-06T00:34:08.323Z,1.40
2022-11-06T00:36:35.708Z,1.80
2022-11-06T00:39:03.341Z,1.50
2022-11-06T00:41:29.887Z,1.50
2022-11-06T00:44:00.019Z,1.30
2022-11-06T00:46:27.132Z,1.60
2022-11-06T00:48:54.644Z,1.30
2022-11-06T00:51:43.757Z,1.80
2022-11-06T00:54:12.392Z,1.70
2022-11-06T00:56:38.912Z,1.80
2022-11-06T00:59:09.795Z,1.60
2022-11-06T01:01:41.434Z,1.60
2022-11-06T01:04:21.687Z,1.50
2022-11-06T01:06:52.656Z,1.70
2022-11-06T01:09:23.897Z,1.40
2022-11-06T01:14:43.174Z,1.90
2022-11-06T01:17:10.171Z,1.20
2022-11-06T01:19:36.853Z,1.40
2022-11-06T01:22:03.843Z,1.30
2022-11-06T01:24:30.759Z,1.60
2022-11-06T01:27:25.951Z,1.50
2022-11-06T01:29:44.561Z,1.40
2022-11-06T01:32:11.163Z,1.20
2022-11-06T01:34:40.067Z,1.50
2022-11-06T01:37:09.169Z,1.40
2022-11-06T01:39:39.774Z,1.10
2022-11-06T01:42:06.237Z,1.30
2022-11-06T01:44:32.724Z,1.60
2022-11-06T01:47:03.232Z,1.50
2022-11-06T01:49:37.266Z,1.30
2022-11-06T01:52:11.009Z,1.50
2022-11-06T01:54:42.312Z,1.50
2022-11-06T01:57:10.481Z,1.40
2022-11-06T01:59:43.816Z,1.70
2022-11-06T02:02:11.814Z,1.70
2022-11-06T02:04:44.280Z,1.80
2022-11-06T02:07:12.497Z,1.60
2022-11-06T02:09:39.742Z,1.60
2022-11-06T02:12:24.895Z,1.60
2022-11-06T02:15:08.139Z,1.40
2022-11-06T02:18:01.876Z,1.60
2022-11-06T02:21:04.414Z,1.80
2022-11-06T02:23:55.286Z,1.70
2022-11-06T02:27:10.013Z,1.60
2022-11-06T02:30:04.210Z,2.10
2022-11-06T02:33:11.574Z,1.30
2022-11-06T02:36:05.453Z,1.40
2022-11-06T02:38:42.912Z,1.60
2022-11-06T02:41:18.895Z,1.60
2022-11-06T02:43:52.688Z,1.60
2022-11-06T02:46:33.858Z,1.60
2022-11-06T02:49:17.221Z,1.70
2022-11-06T02:51:52.148Z,1.60
2022-11-06T02:54:23.209Z,1.50
2022-11-06T02:56:53.836Z,1.80
2022-11-06T02:59:40.671Z,1.50
2022-11-06T03:02:18.984Z,1.70
2022-11-06T03:04:58.092Z,1.80
2022-11-06T03:07:52.051Z,2.10
2022-11-06T03:10:19.503Z,1.70
2022-11-06T03:13:16.059Z,1.90
2022-11-06T03:15:55.169Z,2.40
2022-11-06T03:18:38.385Z,1.90
2022-11-06T03:21:32.997Z,1.90
2022-11-06T03:24:58.516Z,2.10
2022-11-06T03:28:06.344Z,2.00
2022-11-06T03:30:42.466Z,1.70
2022-11-06T03:33:24.926Z,1.80
2022-11-06T03:36:21.899Z,1.90
2022-11-06T03:38:56.237Z,1.90
2022-11-06T03:42:10.674Z,1.70
2022-11-06T03:44:46.393Z,1.90
2022-11-06T03:47:25.706Z,1.80
2022-11-06T03:50:36.916Z,1.60
2022-11-06T03:53:33.733Z,1.70
2022-11-06T03:56:25.467Z,1.80
2022-11-06T03:58:55.973Z,1.80
2022-11-06T04:01:34.161Z,1.80
2022-11-06T04:04:18.353Z,2.10
2022-11-06T04:07:02.479Z,2.00
2022-11-06T04:09:53.657Z,2.10
2022-11-06T04:12:44.218Z,2.40
2022-11-06T04:15:16.915Z,2.60
2022-11-06T04:17:43.736Z,2.70
2022-11-06T04:20:37.506Z,2.60
2022-11-06T04:23:30.790Z,2.80
2022-11-06T04:26:33.950Z,3.10
2022-11-06T04:29:35.169Z,2.50
2022-11-06T04:32:10.291Z,2.80
2022-11-06T04:35:01.469Z,2.40
2022-11-06T04:37:41.186Z,2.20
2022-11-06T04:40:22.288Z,2.50
2022-11-06T04:42:58.220Z,2.20
2022-11-06T04:45:43.858Z,1.90
2022-11-06T04:48:11.660Z,2.30
2022-11-06T04:50:47.899Z,1.90
2022-11-06T04:53:18.336Z,1.90
2022-11-06T04:55:49.716Z,2.50
2022-11-06T04:58:16.457Z,2.20
2022-11-06T05:00:48.832Z,2.50
2022-11-06T05:03:16.489Z,2.40
2022-11-06T05:05:43.976Z,2.40
2022-11-06T05:08:18.133Z,2.30
2022-11-06T05:10:45.409Z,2.40
2022-11-06T05:13:14.086Z,3.10
2022-11-06T05:15:41.212Z,2.80
2022-11-06T05:18:08.528Z,2.40
2022-11-06T05:20:35.496Z,2.30
2022-11-06T05:23:02.202Z,2.30
2022-11-06T05:25:35.974Z,2.20
2022-11-06T05:28:07.823Z,2.40
2022-11-06T05:30:36.703Z,2.70
2022-11-06T05:33:03.701Z,3.20
2022-11-06T05:35:30.194Z,2.40
2022-11-06T05:38:03.557Z,2.80
2022-11-06T05:40:30.190Z,2.50
2022-11-06T05:42:56.782Z,2.70
2022-11-06T05:45:23.320Z,2.30
2022-11-06T05:47:49.819Z,2.10
2022-11-06T05:50:16.562Z,2.20
2022-11-06T05:52:43.096Z,2.70
2022-11-06T05:55:14.493Z,2.90
2022-11-06T05:57:42.702Z,3.00
2022-11-06T06:00:12.090Z,2.80
2022-11-06T06:02:39.686Z,4.20
2022-11-06T06:05:07.868Z,4.10
2022-11-06T06:07:34.812Z,3.20
2022-11-06T06:10:02.136Z,3.40
2022-11-06T06:12:28.776Z,3.20
2022-11-06T06:14:55.611Z,3.20
2022-11-06T06:17:22.423Z,3.70
2022-11-06T06:19:49.061Z,4.90
2022-11-06T06:22:15.562Z,4.70
2022-11-06T06:24:42.209Z,3.60
2022-11-06T06:27:09.827Z,3.80
2022-11-06T06:29:36.363Z,4.00
2022-11-06T06:32:04.142Z,5.10
2022-11-06T06:34:30.683Z,4.60
2022-11-06T06:36:57.219Z,6.40
2022-11-06T06:39:23.748Z,6.80
2022-11-06T06:41:50.248Z,6.50
2022-11-06T06:44:16.845Z,5.10
2022-11-06T06:46:43.448Z,5.10
2022-11-06T06:49:10.093Z,4.70
2022-11-06T06:51:36.621Z,4.80
2022-11-06T06:54:03.399Z,4.20
2022-11-06T06:56:29.900Z,4.40
2022-11-06T06:58:56.410Z,5.30
2022-11-06T07:01:23.205Z,4.70
2022-11-06T07:03:49.928Z,4.90
2022-11-06T07:06:19.322Z,4.70
2022-11-06T07:08:46.281Z,4.40
2022-11-06T07:11:13.442Z,4.10
2022-11-06T07:13:40.035Z,4.50
2022-11-06T07:16:10.137Z,4.60
2022-11-06T07:18:39.010Z,4.50
2022-11-06T07:21:08.936Z,4.10
2022-11-06T07:23:36.617Z,3.80
2022-11-06T07:26:05.023Z,3.90
2022-11-06T07:28:32.893Z,4.30
2022-11-06T07:31:02.873Z,2.70
2022-11-06T07:33:29.754Z,3.90
2022-11-06T07:36:06.297Z,1.70
2022-11-06T07:38:35.131Z,3.50
2022-11-06T07:41:11.464Z,3.50
2022-11-06T07:43:40.177Z,4.00
2022-11-06T07:46:10.181Z,4.20
2022-11-06T07:48:37.243Z,4.20
2022-11-06T07:51:07.780Z,3.80
2022-11-06T07:53:35.105Z,3.20
2022-11-06T07:56:02.424Z,4.10
2022-11-06T07:58:29.412Z,3.90
2022-11-06T08:00:58.302Z,4.20
2022-11-06T08:03:29.293Z,3.50
2022-11-06T08:05:57.874Z,3.50
2022-11-06T08:08:24.502Z,3.50
2022-11-06T08:10:53.239Z,3.30
2022-11-06T08:13:19.864Z,2.90
2022-11-06T08:15:46.740Z,3.30
2022-11-06T08:18:13.953Z,3.40
2022-11-06T08:20:40.855Z,2.70
2022-11-06T08:23:11.275Z,2.30
2022-11-06T08:25:38.928Z,2.90
2022-11-06T08:28:05.623Z,3.00
2022-11-06T08:30:32.483Z,2.50
2022-11-06T08:33:06.456Z,2.80
2022-11-06T08:35:36.894Z,3.00
2022-11-06T08:38:04.260Z,2.50
2022-11-06T08:40:31.615Z,2.70
2022-11-06T08:43:01.287Z,1.50
2022-11-06T08:45:28.474Z,1.70
2022-11-06T08:47:55.421Z,2.40
2022-11-06T08:50:21.993Z,3.50
2022-11-06T08:52:48.553Z,2.40
2022-11-06T08:55:15.232Z,2.10
2022-11-06T08:57:41.732Z,2.50
2022-11-06T09:00:09.216Z,2.40
2022-11-06T09:02:35.822Z,2.40
2022-11-06T09:05:02.528Z,3.90
2022-11-06T09:07:35.101Z,1.60
2022-11-06T09:10:04.434Z,2.80
2022-11-06T09:12:30.906Z,2.90
2022-11-06T09:14:57.432Z,3.20
2022-11-06T09:17:24.024Z,1.80
2022-11-06T09:19:51.131Z,2.60
2022-11-06T09:22:19.028Z,3.00
2022-11-06T09:25:02.672Z,1.90
2022-11-06T09:27:31.533Z,2.00
2022-11-06T09:29:58.343Z,1.30
2022-11-06T09:32:25.191Z,2.50
2022-11-06T09:34:51.797Z,3.30
2022-11-06T09:37:18.300Z,3.30
2022-11-06T09:39:44.809Z,2.40
2022-11-06T09:42:33.741Z,3.10
2022-11-06T09:45:11.500Z,2.80
2022-11-06T09:47:48.251Z,3.10
2022-11-06T09:50:23.459Z,2.50
2022-11-06T09:53:06.027Z,2.70
2022-11-06T09:55:40.261Z,2.00
2022-11-06T09:58:24.585Z,2.10
2022-11-06T10:00:54.169Z,1.10
2022-11-06T10:03:43.104Z,2.20
2022-11-06T10:06:09.608Z,1.50
2022-11-06T10:08:36.311Z,1.50
2022-11-06T10:11:14.927Z,1.90
2022-11-06T10:14:19.567Z,1.20
2022-11-06T10:16:57.056Z,2.20
2022-11-06T10:19:44.933Z,2.00
2022-11-06T10:22:20.634Z,1.80
2022-11-06T10:25:05.608Z,1.90
2022-11-06T10:27:41.368Z,1.60
2022-11-06T10:30:18.433Z,1.70
2022-11-06T10:33:14.374Z,2.20
2022-11-06T10:36:15.334Z,2.30
2022-11-06T10:38:46.879Z,1.40
2022-11-06T10:41:21.949Z,1.90
2022-11-06T10:43:59.993Z,1.50
2022-11-06T10:46:48.271Z,2.60
2022-11-06T10:49:45.500Z,1.10
2022-11-06T10:52:41.029Z,1.50
2022-11-06T10:55:35.612Z,1.20
2022-11-06T10:58:28.598Z,1.40
2022-11-06T11:01:05.015Z,1.60
2022-11-06T11:03:36.530Z,1.30
2022-11-06T11:06:04.548Z,2.10
2022-11-06T11:08:48.245Z,3.00
2022-11-06T11:11:18.003Z,1.40
2022-11-06T11:13:48.973Z,1.20
2022-11-06T11:16:22.051Z,1.80
2022-11-06T11:18:51.091Z,1.60
2022-11-06T11:21:27.486Z,1.80
2022-11-06T11:24:00.123Z,1.10
2022-11-06T11:26:30.900Z,1.10
2022-11-06T11:29:02.419Z,0.70
2022-11-06T11:31:33.705Z,1.70
2022-11-06T11:34:15.258Z,1.20
2022-11-06T11:37:05.418Z,1.40
2022-11-06T11:39:42.154Z,1.40
2022-11-06T11:42:30.831Z,1.60
2022-11-06T11:45:09.546Z,1.40
2022-11-06T11:47:40.028Z,2.00
2022-11-06T11:50:31.888Z,1.80
2022-11-06T11:53:13.166Z,1.40
2022-11-06T11:55:47.255Z,1.40
2022-11-06T11:58:27.228Z,1.60
2022-11-06T12:01:07.347Z,1.60
2022-11-06T12:03:42.460Z,1.20
2022-11-06T12:06:13.480Z,1.20
2022-11-06T12:08:52.180Z,1.10
2022-11-06T12:11:30.017Z,1.80
2022-11-06T12:14:21.836Z,1.20
2022-11-06T12:16:52.809Z,1.30
2022-11-06T12:19:22.719Z,2.10
2022-11-06T12:22:00.694Z,1.80
2022-11-06T12:24:37.462Z,1.80
2022-11-06T12:27:25.625Z,1.90
2022-11-06T12:30:06.142Z,1.20
2022-11-06T12:32:57.834Z,1.10
2022-11-06T12:35:29.870Z,1.30
2022-11-06T12:38:24.595Z,1.30
2022-11-06T12:41:09.865Z,1.10
2022-11-06T12:43:45.676Z,1.30
2022-11-06T12:46:30.886Z,1.50
2022-11-06T12:49:38.300Z,1.40
2022-11-06T12:52:43.119Z,1.90
2022-11-06T12:55:37.155Z,1.70
2022-11-06T12:58:42.072Z,2.60
2022-11-06T13:01:43.055Z,2.80
2022-11-06T13:04:35.390Z,1.30
2022-11-06T13:07:37.645Z,2.20
2022-11-06T13:10:38.755Z,2.30
2022-11-06T13:13:53.673Z,2.30
2022-11-06T13:16:48.900Z,2.50
2022-11-06T13:19:36.257Z,3.50
2022-11-06T13:22:20.954Z,2.60
2022-11-06T13:25:12.606Z,2.90
2022-11-06T13:27:40.915Z,2.50
2022-11-06T13:30:21.455Z,2.50
2022-11-06T13:33:22.731Z,2.70
2022-11-06T13:35:50.829Z,2.00
2022-11-06T13:38:29.206Z,3.10
2022-11-06T13:41:07.317Z,3.00
2022-11-06T13:43:47.171Z,3.00
2022-11-06T13:46:46.909Z,3.20
2022-11-06T13:49:49.962Z,2.90
2022-11-06T13:52:43.154Z,3.00
2022-11-06T13:55:38.640Z,3.00
2022-11-06T13:58:23.359Z,2.00
2022-11-06T14:01:40.162Z,3.00
2022-11-06T14:04:58.530Z,3.00
2022-11-06T14:07:31.726Z,3.50
2022-11-06T14:09:59.373Z,3.20
2022-11-06T14:12:26.969Z,3.00
2022-11-06T14:15:16.866Z,3.20
2022-11-06T14:17:56.902Z,3.50
2022-11-06T14:20:43.291Z,2.80
2022-11-06T14:23:28.215Z,2.70
2022-11-06T14:26:03.757Z,3.50
2022-11-06T14:28:34.196Z,2.90
2022-11-06T14:31:22.551Z,2.40
2022-11-06T14:33:48.909Z,2.70
2022-11-06T14:36:24.700Z,2.40
2022-11-06T14:38:54.802Z,2.80
2022-11-06T14:41:33.208Z,1.70
2022-11-06T14:44:04.970Z,2.10
2022-11-06T14:46:33.080Z,1.70
2022-11-06T14:49:37.324Z,2.30
2022-11-06T14:52:15.187Z,2.00
2022-11-06T14:55:04.401Z,2.40
2022-11-06T14:57:52.733Z,2.40
2022-11-06T15:01:02.027Z,2.10
2022-11-06T15:03:54.213Z,1.50
2022-11-06T15:06:32.788Z,1.30
2022-11-06T15:09:22.302Z,2.20
2022-11-06T15:11:50.004Z,1.60
2022-11-06T15:14:16.575Z,2.40
2022-11-06T15:16:51.401Z,2.60
2022-11-06T15:19:31.485Z,2.10
2022-11-06T15:22:27.318Z,3.00
2022-11-06T15:25:10.382Z,2.50
2022-11-06T15:27:58.691Z,2.90
2022-11-06T15:30:29.017Z,3.00
2022-11-06T15:32:57.167Z,3.70
2022-11-06T15:35:33.024Z,5.00
2022-11-06T15:38:15.824Z,4.00
2022-11-06T15:40:44.475Z,4.30
2022-11-06T15:43:26.323Z,4.00
2022-11-06T15:46:18.832Z,4.30
2022-11-06T15:48:46.074Z,5.00
2022-11-06T15:51:22.577Z,5.10
2022-11-06T15:53:49.383Z,4.40
2022-11-06T15:56:22.203Z,4.10
2022-11-06T15:59:16.600Z,4.10
2022-11-06T16:01:48.675Z,3.60
2022-11-06T16:04:22.565Z,3.80
2022-11-06T16:06:54.543Z,3.00
2022-11-06T16:09:26.436Z,3.70
2022-11-06T16:11:53.812Z,3.70
2022-11-06T16:14:21.720Z,4.20
2022-11-06T16:16:55.004Z,3.50
2022-11-06T16:19:35.094Z,4.30
2022-11-06T16:22:12.501Z,4.30
2022-11-06T16:24:57.233Z,4.60
2022-11-06T16:27:26.031Z,4.20
2022-11-06T16:29:58.378Z,5.10
2022-11-06T16:32:30.291Z,4.00
2022-11-06T16:34:58.082Z,4.30
2022-11-06T16:37:27.637Z,4.80
2022-11-06T16:39:55.449Z,5.40
2022-11-06T16:42:21.917Z,5.30
2022-11-06T16:45:09.549Z,5.00
2022-11-06T16:47:36.504Z,4.70
2022-11-06T16:50:23.452Z,4.30
2022-11-06T16:52:53.366Z,4.00
2022-11-06T16:55:27.944Z,5.10
2022-11-06T16:57:59.091Z,4.80
2022-11-06T17:00:30.447Z,5.30
2022-11-06T17:03:06.685Z,4.80
2022-11-06T17:05:36.483Z,5.00
2022-11-06T17:08:18.604Z,4.40
2022-11-06T17:10:52.549Z,5.20
2022-11-06T17:13:32.290Z,5.90
2022-11-06T17:16:03.584Z,5.20
2022-11-06T17:18:38.391Z,5.80
2022-11-06T17:21:24.376Z,7.00
2022-11-06T17:23:52.874Z,7.10
2022-11-06T17:26:29.438Z,7.80
2022-11-06T17:28:58.342Z,7.20
2022-11-06T17:31:26.799Z,7.00
2022-11-06T17:33:53.922Z,6.50
2022-11-06T17:36:25.152Z,6.50
2022-11-06T17:38:53.941Z,6.70
2022-11-06T17:41:31.933Z,6.50
2022-11-06T17:44:11.812Z,5.70
2022-11-06T17:46:45.399Z,6.20
2022-11-06T17:49:17.565Z,6.80
2022-11-06T17:51:51.461Z,6.40
2022-11-06T17:54:26.854Z,7.00
2022-11-06T17:56:58.093Z,7.20
2022-11-06T17:59:25.540Z,6.30
2022-11-06T18:01:53.817Z,6.60
2022-11-06T18:04:23.940Z,5.80
2022-11-06T18:06:52.491Z,6.60
2022-11-06T18:09:21.147Z,6.30
2022-11-06T18:11:53.344Z,5.80
2022-11-06T18:14:22.156Z,6.20
2022-11-06T18:16:49.361Z,6.20
2022-11-06T18:19:20.187Z,5.00
2022-11-06T18:21:47.919Z,5.50
2022-11-06T18:24:14.930Z,5.50
2022-11-06T18:26:41.845Z,6.30
2022-11-06T18:29:10.665Z,6.20
2022-11-06T18:31:37.305Z,6.40
2022-11-06T18:34:05.362Z,5.70
2022-11-06T18:36:34.562Z,6.10
2022-11-06T18:39:01.506Z,6.50
2022-11-06T18:41:29.486Z,6.50
2022-11-06T18:43:57.294Z,5.90
2022-11-06T18:46:29.371Z,6.20
2022-11-06T18:48:56.869Z,5.70
2022-11-06T18:51:35.229Z,6.10
2022-11-06T18:54:07.372Z,6.60
2022-11-06T18:56:38.374Z,4.10
2022-11-06T18:59:07.836Z,5.30
2022-11-06T19:01:34.878Z,5.80
2022-11-06T19:04:03.125Z,4.20
2022-11-06T19:06:30.842Z,3.90
2022-11-06T19:08:58.383Z,6.40
2022-11-06T19:11:24.878Z,6.30
2022-11-06T19:13:51.463Z,6.50
2022-11-06T19:16:18.882Z,5.30
2022-11-06T19:18:46.683Z,5.50
2022-11-06T19:21:13.960Z,4.70
2022-11-06T19:23:44.173Z,6.60
2022-11-06T19:26:30.640Z,5.30
2022-11-06T19:28:59.310Z,6.50
2022-11-06T19:31:28.452Z,6.30
2022-11-06T19:33:57.004Z,5.40
2022-11-06T19:36:24.556Z,4.60
2022-11-06T19:38:51.119Z,5.50
2022-11-06T19:41:17.776Z,6.20
2022-11-06T19:43:44.504Z,6.20
2022-11-06T19:46:11.179Z,6.30
2022-11-06T19:48:37.946Z,5.30
2022-11-06T19:51:10.942Z,6.40
2022-11-06T19:53:39.658Z,6.80
2022-11-06T19:56:09.603Z,6.70
2022-11-06T19:58:36.380Z,7.70
2022-11-06T20:01:09.178Z,6.20
2022-11-06T20:03:36.689Z,3.80
2022-11-06T20:06:07.848Z,6.30
2022-11-06T20:08:38.096Z,6.60
2022-11-06T20:11:13.840Z,6.70
2022-11-06T20:13:42.779Z,4.90
2022-11-06T20:16:16.908Z,4.10
2022-11-06T20:18:50.385Z,5.90
2022-11-06T20:21:17.527Z,5.50
2022-11-06T20:23:44.538Z,6.40
2022-11-06T20:26:11.195Z,5.80
2022-11-06T20:28:38.083Z,5.10
2022-11-06T20:31:10.196Z,5.40
2022-11-06T20:33:37.996Z,6.50
2022-11-06T20:36:18.843Z,4.40
2022-11-06T20:38:46.352Z,6.30
2022-11-06T20:41:14.056Z,4.40
2022-11-06T20:43:41.847Z,6.40
2022-11-06T20:46:11.246Z,6.50
2022-11-06T20:48:38.272Z,6.70
2022-11-06T20:51:10.121Z,6.80
2022-11-06T20:53:38.678Z,7.20
2022-11-06T20:56:09.651Z,6.90
2022-11-06T20:58:36.881Z,7.40
2022-11-06T21:01:09.894Z,6.50
2022-11-06T21:03:39.025Z,7.10
2022-11-06T21:06:07.226Z,6.60
2022-11-06T21:08:36.349Z,7.40
2022-11-06T21:11:06.708Z,6.90
2022-11-06T21:13:34.676Z,7.70
2022-11-06T21:16:06.062Z,6.90
2022-11-06T21:18:37.829Z,6.00
2022-11-06T21:21:07.763Z,7.20
2022-11-06T21:23:35.559Z,6.50
2022-11-06T21:26:12.829Z,6.50
2022-11-06T21:28:42.865Z,7.20
2022-11-06T21:31:14.616Z,7.20
2022-11-06T21:33:47.270Z,6.80
2022-11-06T21:36:18.825Z,6.10
2022-11-06T21:38:46.137Z,6.70
2022-11-06T21:41:17.142Z,5.90
2022-11-06T21:43:45.115Z,7.20
2022-11-06T21:46:12.552Z,6.70
2022-11-06T21:48:46.365Z,6.70
2022-11-06T21:51:19.471Z,6.20
2022-11-06T21:54:06.559Z,6.70
2022-11-06T21:56:34.633Z,5.70
2022-11-06T21:59:04.152Z,7.00
2022-11-06T22:01:32.241Z,5.60
2022-11-06T22:04:00.106Z,6.30
2022-11-06T22:06:28.901Z,6.10
2022-11-06T22:08:58.359Z,5.80
2022-11-06T22:11:34.028Z,5.80
2022-11-06T22:14:06.667Z,4.70
2022-11-06T22:16:38.428Z,5.80
2022-11-06T22:19:07.527Z,4.70
2022-11-06T22:21:37.212Z,6.40
2022-11-06T22:24:05.228Z,5.40
2022-11-06T22:26:34.357Z,5.40
2022-11-06T22:29:08.945Z,4.40
2022-11-06T22:31:35.534Z,5.10
2022-11-06T22:34:02.435Z,4.70
2022-11-06T22:36:28.991Z,5.00
2022-11-06T22:38:56.245Z,5.50
2022-11-06T22:41:24.630Z,6.40
2022-11-06T22:43:56.480Z,5.30
2022-11-06T22:46:23.705Z,5.00
2022-11-06T22:48:52.020Z,5.70
2022-11-06T22:51:28.805Z,5.60
2022-11-06T22:53:56.204Z,4.40
2022-11-06T22:56:24.976Z,3.50
2022-11-06T22:59:01.572Z,5.10
2022-11-06T23:01:30.851Z,4.20
2022-11-06T23:04:02.860Z,4.80
2022-11-06T23:06:30.453Z,5.60
2022-11-06T23:09:00.268Z,4.10
2022-11-06T23:11:28.888Z,5.50
2022-11-06T23:13:55.900Z,3.30
2022-11-06T23:16:44.089Z,4.20
2022-11-06T23:19:15.794Z,6.20
2022-11-06T23:21:43.669Z,5.30
2022-11-06T23:24:11.128Z,5.40
2022-11-06T23:26:38.196Z,6.00
2022-11-06T23:29:05.261Z,5.50
2022-11-06T23:31:31.771Z,5.60
2022-11-06T23:33:58.362Z,5.20
2022-11-06T23:36:25.520Z,6.20
2022-11-06T23:38:53.495Z,5.20
2022-11-06T23:41:38.964Z,5.90
2022-11-06T23:44:25.770Z,5.30
2022-11-06T23:46:52.641Z,5.00
2022-11-06T23:49:19.360Z,5.40
2022-11-06T23:51:45.901Z,5.80
2022-11-06T23:54:12.771Z,6.10
2022-11-06T23:56:39.465Z,5.50
2022-11-06T23:59:06.112Z,5.60
